Flight Track Log - Related Links

Times and Time Zones

All times are in EDT time to prevent confusion due to time zone crossing. See the CTL18 flight status page for this flight to view local times or setup timezone preferences in your user account.

Time Position Orientation Groundspeed Altitude Reporting Facility
EDT Latitude Longitude Course Direction KTS MPH feet Rate Location/Type
Wed 08:54:37 PM 42.2000 -83.5853 228° Southwest 128 147 1,900  Level Cleveland Center
Wed 08:55:38 PM 42.1700 -83.6203 221° Southwest 138 159 2,500 492 Climbing Cleveland Center
Wed 08:56:39 PM 42.1419 -83.6553 223° Southwest 145 167 2,900 248 Climbing Cleveland Center
Wed 08:57:39 PM 42.1075 -83.6928 219° Southwest 166 191 3,000 313 Climbing Cleveland Center
Wed 08:58:34 PM 42.0658 -83.6936 181° South 157 181 3,500 403 Climbing Cleveland Center
Wed 08:59:53 PM 42.0097 -83.6881 176° South 161 185 3,900 386 Climbing Cleveland Center
Wed 09:00:54 PM 41.9756 -83.6417 135° Southeast 174 200 4,400 545 Climbing Cleveland Center
Wed 09:01:54 PM 41.9603 -83.5822 109° East 171 197 5,000 298 Climbing Cleveland Center
Wed 09:02:55 PM 41.9453 -83.5175 107° East 190 219 5,000 52 Level Cleveland Center
Wed 09:03:49 PM 41.9283 -83.4525 109° East 192 221 5,100 58 Climbing Cleveland Center
Wed 09:04:38 PM 41.9169 -83.4017 107° East 193 222 5,100 -55 Level Cleveland Center
Wed 09:05:39 PM 41.8997 -83.3339 109° East 189 217 5,000  Descending Cleveland Center
Wed 09:06:39 PM 41.8828 -83.2661 109° East 191 220 5,100  Climbing Cleveland Center
Wed 09:07:40 PM 41.8675 -83.1958 106° East 190 219 5,000 -45 Descending Cleveland Center
Wed 09:08:53 PM 41.8425 -83.1139 112° Southeast 187 215 5,000  Level Cleveland Center
Wed 09:09:53 PM 41.8311 -83.0522 104° East 186 214 5,000  Level Cleveland Center
Wed 09:10:54 PM 41.8158 -82.9847 107° East 186 214 5,000 47 Level Cleveland Center
Wed 09:12:01 PM 41.7967 -82.9089 109° East 195 224 5,100 56 Climbing Cleveland Center
Wed 09:12:41 PM 41.7850 -82.8667 110° East 186 214 5,100  Level Cleveland Center
Wed 09:13:47 PM 41.7697 -82.7939 106° East 187 215 5,100  Level Cleveland Center
Wed 09:14:48 PM 41.7564 -82.7236 104° East 188 216 5,100 -50 Level Cleveland Center
Wed 09:15:48 PM 41.7431 -82.6564 105° East 190 219 5,000 -313 Descending Cleveland Center
Wed 09:16:43 PM 41.7256 -82.5947 111° Southeast 200 230 4,500 -443 Descending Cleveland Center
Wed 09:17:50 PM 41.7081 -82.5106 106° East 198 228 4,100 -331 Descending Cleveland Center
Wed 09:18:50 PM 41.6906 -82.4406 108° East 195 224 3,800 -331 Descending Cleveland Center
Wed 09:19:57 PM 41.6731 -82.3706 108° East 196 226 3,400 -328 Descending Cleveland Center
Wed 09:20:58 PM 41.6575 -82.2981 106° East 200 230 3,100 -189 Descending Cleveland Center
Wed 09:22:04 PM 41.6378 -82.2167 108° East 190 219 3,000 -50 Descending Cleveland Center
Wed 09:22:59 PM 41.6261 -82.1553 104° East 184 212 3,000  Level Cleveland Center
Wed 09:24:00 PM 41.6144 -82.0883 103° East 186 214 3,000  Level Cleveland Center
Wed 09:24:54 PM 41.5964 -82.0297 112° Southeast 183 211 3,000 -55 Level Cleveland Center
Wed 09:25:49 PM 41.5847 -81.9739 106° East 186 214 2,900 -155 Descending Cleveland Center
Wed 09:26:50 PM 41.5667 -81.9042 109° East 186 214 2,700 -361 Descending Cleveland Center
Wed 09:28:02 PM 41.5467 -81.8261 109° East 190 219 2,100 -432 Descending Cleveland Center
Wed 09:29:09 PM 41.5369 -81.7567 101° East 157 181 1,700 -344 Descending Cleveland Center
Wed 09:30:04 PM 41.5375 -81.7094 89° East 146 168 1,400 -440 Descending Cleveland Center
Wed 09:30:58 PM 41.5294 -81.6678 104° East 121 139 900 -556 Descending Cleveland Center
Wed 09:32:00 PM 41.5167 -81.6667 124° Southeast  Level FlightAware Approximate
Wed 09:39:00 PM 41.5175 -81.6833 124° Southeast  Level Estimated

Login

Don't have an account? Register now (free) for customized features, flight alerts, and more!